Date,TemperatureHighF,TemperatureAvgF,TemperatureLowF,DewpointHighF,DewpointAvgF,DewpointLowF,HumidityHigh,HumidityAvg,HumidityLow,PressureMaxIn,PressureMinIn,WindSpeedMaxMPH,WindSpeedAvgMPH,GustSpeedMaxMPH,PrecipitationSumIn
2013-5-1,60.7,53.2,47.6,51.5,47.8,44.1,92,82,58,30.08,29.97,8,1,10,0.03
2013-5-2,54.3,51.0,48.8,51.7,48.2,45.9,93,90,85,30.20,30.04,4,1,8,0.33
2013-5-3,56.2,52.0,49.2,50.9,48.6,46.7,93,88,81,30.21,30.15,3,1,4,0.17
2013-5-4,61.4,55.5,51.1,53.5,50.7,48.6,93,84,73,30.22,30.16,2,0,7,0.00
2013-5-5,65.9,56.5,48.4,55.0,50.5,46.2,92,81,61,30.22,30.13,3,0,7,0.00
2013-5-6,76.3,60.7,51.8,55.5,51.0,45.5,87,73,37,30.15,29.99,12,1,16,0.00
2013-5-7,73.2,64.2,58.3,59.9,55.7,50.9,89,75,56,30.06,29.95,2,0,4,0.00
2013-5-8,69.3,63.2,58.9,59.4,56.5,52.2,92,80,57,30.09,29.90,7,1,7,0.09
2013-5-9,59.5,56.6,52.6,56.6,54.5,50.6,95,93,90,30.20,30.00,3,0,7,0.64
2013-5-10,60.9,54.5,50.0,52.0,49.4,44.7,94,84,65,30.23,30.18,2,0,6,0.01
2013-5-11,62.2,55.4,50.0,50.6,47.6,44.1,89,76,57,30.30,30.20,4,1,7,0.00
2013-5-12,59.9,55.2,52.1,49.4,48.1,45.7,84,77,63,30.31,30.26,3,0,4,0.00
2013-5-13,61.7,54.4,46.9,51.4,47.7,44.1,91,79,64,30.30,30.14,2,1,4,0.00
2013-5-14,63.1,56.7,52.5,53.3,50.6,48.8,93,80,67,30.14,29.73,3,1,7,0.20
2013-5-15,56.1,52.2,49.2,50.9,47.6,45.2,92,84,69,29.73,29.67,4,1,6,0.20
2013-5-16,58.6,51.6,46.7,46.8,43.8,41.5,90,75,58,29.69,29.52,5,1,9,0.04
2013-5-17,57.7,51.0,46.5,52.8,45.8,42.1,92,83,68,29.61,29.44,3,1,7,0.54
2013-5-18,52.8,49.7,46.8,48.9,47.0,44.9,94,91,84,29.86,29.56,6,2,10,2.76
2013-5-19,58.4,52.7,49.2,51.2,47.8,45.5,92,84,72,30.11,29.86,5,1,10,0.19
2013-5-20,61.8,54.0,46.7,50.1,47.0,44.4,93,78,59,30.16,30.10,4,1,7,0.00
2013-5-21,55.0,51.6,48.9,51.1,47.5,43.7,94,86,79,30.17,30.09,4,1,4,0.06
2013-5-22,58.5,54.1,51.2,53.4,51.5,49.1,95,91,81,30.19,30.11,4,1,7,0.38
2013-5-23,58.0,55.4,53.8,53.3,50.4,47.1,94,84,73,30.18,30.11,3,1,6,0.02
2013-5-24,59.3,53.9,48.5,48.6,44.5,40.8,86,71,55,30.15,30.10,7,2,9,0.05
2013-5-25,60.4,54.2,50.0,48.6,45.9,42.4,88,74,60,30.20,30.10,6,1,11,0.06
2013-5-26,65.5,54.1,43.6,52.8,46.3,40.3,90,76,52,30.20,29.95,4,1,8,0.01
2013-5-27,61.0,56.5,52.7,54.3,51.5,49.3,90,83,73,29.98,29.78,4,1,9,0.00
2013-5-28,60.2,53.9,49.0,51.9,48.3,44.7,91,82,63,29.94,29.72,7,2,11,0.67
2013-5-29,56.8,50.5,47.1,49.1,45.8,43.3,89,84,72,29.97,29.86,8,2,12,0.61
2013-5-30,56.1,53.4,49.1,53.3,50.0,46.5,93,88,80,30.12,29.95,4,1,10,0.15
2013-5-31,56.0,54.9,53.3,54.1,51.8,49.8,94,89,81,30.26,30.06,4,2,11,0.25